sensor_id;sensor_type;location;lat;lon;timestamp;pressure;altitude;pressure_sealevel;temperature
76901;BMP280;65859;43.020;25.096;2023-05-08T00:02:10;99418.00;;;12.86
76901;BMP280;65859;43.020;25.096;2023-05-08T00:04:38;99415.22;;;12.70
76901;BMP280;65859;43.020;25.096;2023-05-08T00:07:04;99419.19;;;12.52
76901;BMP280;65859;43.020;25.096;2023-05-08T00:09:31;99428.81;;;12.44
76901;BMP280;65859;43.020;25.096;2023-05-08T00:11:57;99424.31;;;12.24
76901;BMP280;65859;43.020;25.096;2023-05-08T00:14:23;99421.81;;;12.07
76901;BMP280;65859;43.020;25.096;2023-05-08T00:16:50;99413.38;;;12.38
76901;BMP280;65859;43.020;25.096;2023-05-08T00:19:16;99413.25;;;12.34
76901;BMP280;65859;43.020;25.096;2023-05-08T00:21:42;99416.56;;;12.31
76901;BMP280;65859;43.020;25.096;2023-05-08T00:24:08;99413.91;;;12.31
76901;BMP280;65859;43.020;25.096;2023-05-08T00:26:35;99415.91;;;12.80
76901;BMP280;65859;43.020;25.096;2023-05-08T00:29:01;99411.34;;;13.04
76901;BMP280;65859;43.020;25.096;2023-05-08T00:31:28;99403.03;;;12.94
76901;BMP280;65859;43.020;25.096;2023-05-08T00:33:54;99413.09;;;13.37
76901;BMP280;65859;43.020;25.096;2023-05-08T00:36:22;99411.78;;;12.58
76901;BMP280;65859;43.020;25.096;2023-05-08T00:38:48;99414.91;;;12.84
76901;BMP280;65859;43.020;25.096;2023-05-08T00:41:14;99411.34;;;12.35
76901;BMP280;65859;43.020;25.096;2023-05-08T00:43:41;99407.53;;;11.90
76901;BMP280;65859;43.020;25.096;2023-05-08T00:46:07;99412.59;;;12.37
76901;BMP280;65859;43.020;25.096;2023-05-08T00:48:37;99415.75;;;12.64
76901;BMP280;65859;43.020;25.096;2023-05-08T00:51:06;99419.97;;;12.53
76901;BMP280;65859;43.020;25.096;2023-05-08T00:53:36;99419.38;;;11.81
76901;BMP280;65859;43.020;25.096;2023-05-08T00:56:05;99422.63;;;11.66
76901;BMP280;65859;43.020;25.096;2023-05-08T00:58:33;99427.66;;;11.79
76901;BMP280;65859;43.020;25.096;2023-05-08T01:01:00;99425.59;;;11.34
76901;BMP280;65859;43.020;25.096;2023-05-08T01:03:27;99423.16;;;11.50
76901;BMP280;65859;43.020;25.096;2023-05-08T01:05:54;99422.22;;;11.55
76901;BMP280;65859;43.020;25.096;2023-05-08T01:08:22;99427.88;;;11.74
76901;BMP280;65859;43.020;25.096;2023-05-08T01:16:16;99430.13;;;11.04
76901;BMP280;65859;43.020;25.096;2023-05-08T01:30:26;99439.66;;;12.39
76901;BMP280;65859;43.020;25.096;2023-05-08T01:33:04;99435.88;;;12.86
76901;BMP280;65859;43.020;25.096;2023-05-08T01:38:29;99437.75;;;13.10
76901;BMP280;65859;43.020;25.096;2023-05-08T01:41:15;99431.47;;;11.90
76901;BMP280;65859;43.020;25.096;2023-05-08T01:46:26;99429.31;;;13.08
76901;BMP280;65859;43.020;25.096;2023-05-08T01:51:28;99435.25;;;12.68
76901;BMP280;65859;43.020;25.096;2023-05-08T01:54:02;99424.78;;;12.84
76901;BMP280;65859;43.020;25.096;2023-05-08T01:56:30;99426.97;;;12.82
76901;BMP280;65859;43.020;25.096;2023-05-08T01:58:58;99422.72;;;12.44
76901;BMP280;65859;43.020;25.096;2023-05-08T02:01:26;99425.88;;;12.04
76901;BMP280;65859;43.020;25.096;2023-05-08T02:03:55;99423.06;;;12.55
76901;BMP280;65859;43.020;25.096;2023-05-08T02:06:22;99421.47;;;12.54
76901;BMP280;65859;43.020;25.096;2023-05-08T02:08:51;99423.22;;;11.12
76901;BMP280;65859;43.020;25.096;2023-05-08T02:11:19;99430.19;;;10.96
76901;BMP280;65859;43.020;25.096;2023-05-08T02:13:47;99426.59;;;10.83
76901;BMP280;65859;43.020;25.096;2023-05-08T02:16:15;99421.69;;;11.02
76901;BMP280;65859;43.020;25.096;2023-05-08T02:18:52;99419.59;;;10.78
76901;BMP280;65859;43.020;25.096;2023-05-08T02:21:21;99417.22;;;11.24
76901;BMP280;65859;43.020;25.096;2023-05-08T02:23:48;99425.97;;;11.75
76901;BMP280;65859;43.020;25.096;2023-05-08T02:26:16;99424.00;;;11.13
76901;BMP280;65859;43.020;25.096;2023-05-08T02:28:43;99424.75;;;10.66
76901;BMP280;65859;43.020;25.096;2023-05-08T02:31:11;99416.97;;;11.08
76901;BMP280;65859;43.020;25.096;2023-05-08T02:33:41;99422.84;;;10.84
76901;BMP280;65859;43.020;25.096;2023-05-08T02:36:12;99418.25;;;10.55
76901;BMP280;65859;43.020;25.096;2023-05-08T02:38:41;99425.13;;;11.03
76901;BMP280;65859;43.020;25.096;2023-05-08T02:41:10;99415.53;;;11.19
76901;BMP280;65859;43.020;25.096;2023-05-08T02:43:38;99420.84;;;11.70
76901;BMP280;65859;43.020;25.096;2023-05-08T02:49:11;99423.63;;;11.52
76901;BMP280;65859;43.020;25.096;2023-05-08T02:51:56;99428.81;;;11.49
76901;BMP280;65859;43.020;25.096;2023-05-08T02:59:58;99424.97;;;10.44
76901;BMP280;65859;43.020;25.096;2023-05-08T03:02:41;99424.06;;;10.40
76901;BMP280;65859;43.020;25.096;2023-05-08T03:05:29;99428.91;;;10.20
76901;BMP280;65859;43.020;25.096;2023-05-08T03:08:02;99420.91;;;10.55
76901;BMP280;65859;43.020;25.096;2023-05-08T03:10:32;99426.66;;;10.57
76901;BMP280;65859;43.020;25.096;2023-05-08T03:13:01;99437.19;;;10.19
76901;BMP280;65859;43.020;25.096;2023-05-08T03:15:56;99431.03;;;10.70
76901;BMP280;65859;43.020;25.096;2023-05-08T03:18:25;99436.25;;;10.06
76901;BMP280;65859;43.020;25.096;2023-05-08T03:20:55;99439.00;;;9.84
76901;BMP280;65859;43.020;25.096;2023-05-08T03:23:26;99440.88;;;9.75
76901;BMP280;65859;43.020;25.096;2023-05-08T03:25:55;99432.31;;;10.04
76901;BMP280;65859;43.020;25.096;2023-05-08T03:28:23;99437.78;;;9.98
76901;BMP280;65859;43.020;25.096;2023-05-08T03:30:50;99435.91;;;10.16
76901;BMP280;65859;43.020;25.096;2023-05-08T03:33:17;99440.59;;;10.19
76901;BMP280;65859;43.020;25.096;2023-05-08T03:35:44;99442.25;;;10.67
76901;BMP280;65859;43.020;25.096;2023-05-08T03:38:11;99447.88;;;9.62
76901;BMP280;65859;43.020;25.096;2023-05-08T03:40:38;99449.56;;;9.58
76901;BMP280;65859;43.020;25.096;2023-05-08T03:43:07;99444.59;;;9.65
76901;BMP280;65859;43.020;25.096;2023-05-08T03:45:38;99445.28;;;9.88
76901;BMP280;65859;43.020;25.096;2023-05-08T03:48:05;99445.72;;;10.07
76901;BMP280;65859;43.020;25.096;2023-05-08T03:50:34;99444.03;;;10.37
76901;BMP280;65859;43.020;25.096;2023-05-08T03:53:01;99449.63;;;10.18
76901;BMP280;65859;43.020;25.096;2023-05-08T03:55:29;99461.66;;;10.42
76901;BMP280;65859;43.020;25.096;2023-05-08T03:58:00;99460.84;;;10.50
76901;BMP280;65859;43.020;25.096;2023-05-08T04:03:40;99461.00;;;10.62
76901;BMP280;65859;43.020;25.096;2023-05-08T04:06:06;99467.03;;;10.97
76901;BMP280;65859;43.020;25.096;2023-05-08T04:08:41;99463.41;;;11.31
76901;BMP280;65859;43.020;25.096;2023-05-08T04:14:05;99473.16;;;11.27
76901;BMP280;65859;43.020;25.096;2023-05-08T04:16:39;99465.22;;;10.63
76901;BMP280;65859;43.020;25.096;2023-05-08T04:19:17;99464.59;;;10.49
76901;BMP280;65859;43.020;25.096;2023-05-08T04:21:45;99468.94;;;11.26
76901;BMP280;65859;43.020;25.096;2023-05-08T04:24:14;99475.66;;;11.53
76901;BMP280;65859;43.020;25.096;2023-05-08T04:26:43;99482.31;;;14.14
76901;BMP280;65859;43.020;25.096;2023-05-08T04:29:10;99479.09;;;15.66
76901;BMP280;65859;43.020;25.096;2023-05-08T04:31:36;99471.72;;;14.17
76901;BMP280;65859;43.020;25.096;2023-05-08T04:34:04;99466.16;;;13.54
76901;BMP280;65859;43.020;25.096;2023-05-08T04:36:32;99465.97;;;13.11
76901;BMP280;65859;43.020;25.096;2023-05-08T04:38:58;99465.19;;;12.19
76901;BMP280;65859;43.020;25.096;2023-05-08T04:41:25;99473.53;;;12.51
76901;BMP280;65859;43.020;25.096;2023-05-08T04:43:52;99466.84;;;13.15
76901;BMP280;65859;43.020;25.096;2023-05-08T04:46:19;99464.31;;;13.06
76901;BMP280;65859;43.020;25.096;2023-05-08T04:48:47;99464.53;;;13.25
76901;BMP280;65859;43.020;25.096;2023-05-08T04:51:13;99466.09;;;13.14
76901;BMP280;65859;43.020;25.096;2023-05-08T04:53:39;99468.41;;;13.40
76901;BMP280;65859;43.020;25.096;2023-05-08T04:56:06;99469.69;;;13.99
76901;BMP280;65859;43.020;25.096;2023-05-08T04:58:32;99463.13;;;14.08
76901;BMP280;65859;43.020;25.096;2023-05-08T05:01:02;99468.22;;;14.13
76901;BMP280;65859;43.020;25.096;2023-05-08T05:03:28;99476.41;;;13.40
76901;BMP280;65859;43.020;25.096;2023-05-08T05:05:59;99475.09;;;12.64
76901;BMP280;65859;43.020;25.096;2023-05-08T05:08:25;99471.97;;;12.50
76901;BMP280;65859;43.020;25.096;2023-05-08T05:10:52;99477.56;;;12.69
76901;BMP280;65859;43.020;25.096;2023-05-08T05:13:18;99472.22;;;13.79
76901;BMP280;65859;43.020;25.096;2023-05-08T05:15:45;99466.22;;;14.54
76901;BMP280;65859;43.020;25.096;2023-05-08T05:18:11;99469.28;;;13.56
76901;BMP280;65859;43.020;25.096;2023-05-08T05:20:39;99463.25;;;14.00
76901;BMP280;65859;43.020;25.096;2023-05-08T05:23:06;99459.97;;;15.13
76901;BMP280;65859;43.020;25.096;2023-05-08T05:25:33;99454.16;;;15.08
76901;BMP280;65859;43.020;25.096;2023-05-08T05:27:59;99461.22;;;15.00
76901;BMP280;65859;43.020;25.096;2023-05-08T05:30:26;99457.00;;;14.99
76901;BMP280;65859;43.020;25.096;2023-05-08T05:32:53;99454.44;;;15.38
76901;BMP280;65859;43.020;25.096;2023-05-08T05:35:19;99456.00;;;15.77
76901;BMP280;65859;43.020;25.096;2023-05-08T05:37:45;99457.03;;;16.11
76901;BMP280;65859;43.020;25.096;2023-05-08T05:40:12;99454.84;;;15.05
76901;BMP280;65859;43.020;25.096;2023-05-08T05:42:38;99445.53;;;15.88
76901;BMP280;65859;43.020;25.096;2023-05-08T05:45:05;99444.69;;;16.26
76901;BMP280;65859;43.020;25.096;2023-05-08T05:47:32;99446.13;;;16.43
76901;BMP280;65859;43.020;25.096;2023-05-08T05:49:58;99447.47;;;16.10
76901;BMP280;65859;43.020;25.096;2023-05-08T05:52:25;99443.75;;;15.76
76901;BMP280;65859;43.020;25.096;2023-05-08T05:54:52;99442.66;;;16.92
76901;BMP280;65859;43.020;25.096;2023-05-08T05:57:18;99440.66;;;15.55
76901;BMP280;65859;43.020;25.096;2023-05-08T05:59:44;99439.31;;;15.45
76901;BMP280;65859;43.020;25.096;2023-05-08T06:02:11;99438.59;;;17.01
76901;BMP280;65859;43.020;25.096;2023-05-08T06:04:43;99440.88;;;16.50
76901;BMP280;65859;43.020;25.096;2023-05-08T06:07:09;99440.56;;;17.34
76901;BMP280;65859;43.020;25.096;2023-05-08T06:09:36;99445.06;;;17.00
76901;BMP280;65859;43.020;25.096;2023-05-08T06:12:02;99441.19;;;17.91
76901;BMP280;65859;43.020;25.096;2023-05-08T06:14:28;99436.22;;;17.90
76901;BMP280;65859;43.020;25.096;2023-05-08T06:16:54;99428.41;;;18.70
76901;BMP280;65859;43.020;25.096;2023-05-08T06:19:21;99426.69;;;19.13
76901;BMP280;65859;43.020;25.096;2023-05-08T06:21:50;99422.22;;;19.42
76901;BMP280;65859;43.020;25.096;2023-05-08T06:24:19;99415.13;;;19.02
76901;BMP280;65859;43.020;25.096;2023-05-08T06:26:45;99415.84;;;18.95
76901;BMP280;65859;43.020;25.096;2023-05-08T06:29:12;99407.56;;;18.52
76901;BMP280;65859;43.020;25.096;2023-05-08T06:31:38;99417.13;;;19.12
76901;BMP280;65859;43.020;25.096;2023-05-08T06:34:04;99410.34;;;17.78
76901;BMP280;65859;43.020;25.096;2023-05-08T06:36:31;99406.16;;;19.70
76901;BMP280;65859;43.020;25.096;2023-05-08T06:38:57;99406.13;;;20.45
76901;BMP280;65859;43.020;25.096;2023-05-08T06:41:23;99409.59;;;20.42
76901;BMP280;65859;43.020;25.096;2023-05-08T06:43:50;99411.09;;;20.68
76901;BMP280;65859;43.020;25.096;2023-05-08T06:46:16;99408.06;;;20.30
76901;BMP280;65859;43.020;25.096;2023-05-08T06:48:43;99411.13;;;20.64
76901;BMP280;65859;43.020;25.096;2023-05-08T06:51:09;99402.66;;;20.20
76901;BMP280;65859;43.020;25.096;2023-05-08T06:53:35;99403.75;;;19.37
76901;BMP280;65859;43.020;25.096;2023-05-08T06:56:03;99405.00;;;18.81
76901;BMP280;65859;43.020;25.096;2023-05-08T06:58:31;99402.97;;;19.40
76901;BMP280;65859;43.020;25.096;2023-05-08T07:01:00;99405.50;;;18.97
76901;BMP280;65859;43.020;25.096;2023-05-08T07:03:27;99402.59;;;20.73
76901;BMP280;65859;43.020;25.096;2023-05-08T07:05:53;99405.47;;;21.25
76901;BMP280;65859;43.020;25.096;2023-05-08T07:08:19;99395.25;;;19.28
76901;BMP280;65859;43.020;25.096;2023-05-08T07:10:46;99395.72;;;20.65
76901;BMP280;65859;43.020;25.096;2023-05-08T07:13:12;99394.19;;;20.46
76901;BMP280;65859;43.020;25.096;2023-05-08T07:15:38;99391.81;;;19.31
76901;BMP280;65859;43.020;25.096;2023-05-08T07:18:05;99387.66;;;19.65
76901;BMP280;65859;43.020;25.096;2023-05-08T07:20:31;99391.22;;;21.21
76901;BMP280;65859;43.020;25.096;2023-05-08T07:22:58;99389.91;;;22.36
76901;BMP280;65859;43.020;25.096;2023-05-08T07:25:24;99385.56;;;22.80
76901;BMP280;65859;43.020;25.096;2023-05-08T07:27:52;99386.00;;;23.05
76901;BMP280;65859;43.020;25.096;2023-05-08T07:30:18;99380.88;;;22.84
76901;BMP280;65859;43.020;25.096;2023-05-08T07:32:45;99386.66;;;23.67
76901;BMP280;65859;43.020;25.096;2023-05-08T07:35:11;99390.06;;;22.90
76901;BMP280;65859;43.020;25.096;2023-05-08T07:37:38;99393.03;;;23.53
76901;BMP280;65859;43.020;25.096;2023-05-08T07:40:05;99389.13;;;24.01
76901;BMP280;65859;43.020;25.096;2023-05-08T07:42:38;99389.44;;;24.26
76901;BMP280;65859;43.020;25.096;2023-05-08T07:45:05;99386.28;;;24.08
76901;BMP280;65859;43.020;25.096;2023-05-08T07:47:31;99376.88;;;24.36
76901;BMP280;65859;43.020;25.096;2023-05-08T07:49:58;99375.16;;;24.45
76901;BMP280;65859;43.020;25.096;2023-05-08T07:52:24;99373.84;;;24.70
76901;BMP280;65859;43.020;25.096;2023-05-08T07:54:50;99374.78;;;24.43
76901;BMP280;65859;43.020;25.096;2023-05-08T07:57:17;99380.03;;;23.91
76901;BMP280;65859;43.020;25.096;2023-05-08T07:59:45;99374.44;;;25.13
76901;BMP280;65859;43.020;25.096;2023-05-08T08:02:11;99380.78;;;25.72
76901;BMP280;65859;43.020;25.096;2023-05-08T08:04:37;99379.38;;;25.67
76901;BMP280;65859;43.020;25.096;2023-05-08T08:07:04;99375.94;;;24.82
76901;BMP280;65859;43.020;25.096;2023-05-08T08:09:30;99373.81;;;24.89
76901;BMP280;65859;43.020;25.096;2023-05-08T08:11:57;99374.00;;;25.47
76901;BMP280;65859;43.020;25.096;2023-05-08T08:14:23;99382.47;;;25.37
76901;BMP280;65859;43.020;25.096;2023-05-08T08:16:50;99370.97;;;25.90
76901;BMP280;65859;43.020;25.096;2023-05-08T08:19:16;99370.13;;;25.94
76901;BMP280;65859;43.020;25.096;2023-05-08T08:21:43;99371.63;;;25.95
76901;BMP280;65859;43.020;25.096;2023-05-08T08:24:09;99370.25;;;26.44
76901;BMP280;65859;43.020;25.096;2023-05-08T08:26:35;99361.00;;;26.80
76901;BMP280;65859;43.020;25.096;2023-05-08T08:29:02;99363.09;;;26.88
76901;BMP280;65859;43.020;25.096;2023-05-08T08:31:30;99364.47;;;26.68
76901;BMP280;65859;43.020;25.096;2023-05-08T08:33:56;99366.69;;;26.98
76901;BMP280;65859;43.020;25.096;2023-05-08T08:36:22;99355.03;;;26.72
76901;BMP280;65859;43.020;25.096;2023-05-08T08:38:48;99350.03;;;27.43
76901;BMP280;65859;43.020;25.096;2023-05-08T08:41:15;99354.25;;;27.44
76901;BMP280;65859;43.020;25.096;2023-05-08T08:43:41;99348.66;;;28.04
76901;BMP280;65859;43.020;25.096;2023-05-08T08:46:12;99372.19;;;31.08
76901;BMP280;65859;43.020;25.096;2023-05-08T08:48:44;99367.06;;;34.29
76901;BMP280;65859;43.020;25.096;2023-05-08T08:51:49;99373.69;;;35.36
76901;BMP280;65859;43.020;25.096;2023-05-08T08:54:19;99366.41;;;33.71
76901;BMP280;65859;43.020;25.096;2023-05-08T08:56:48;99363.31;;;36.14
76901;BMP280;65859;43.020;25.096;2023-05-08T08:59:16;99361.78;;;34.90
76901;BMP280;65859;43.020;25.096;2023-05-08T09:01:47;99370.38;;;35.98
76901;BMP280;65859;43.020;25.096;2023-05-08T09:04:16;99358.78;;;34.83
76901;BMP280;65859;43.020;25.096;2023-05-08T09:06:43;99364.56;;;37.12
76901;BMP280;65859;43.020;25.096;2023-05-08T09:09:11;99357.34;;;37.03
76901;BMP280;65859;43.020;25.096;2023-05-08T09:11:39;99365.78;;;38.00
76901;BMP280;65859;43.020;25.096;2023-05-08T09:14:07;99361.69;;;38.44
76901;BMP280;65859;43.020;25.096;2023-05-08T09:16:34;99362.19;;;36.92
76901;BMP280;65859;43.020;25.096;2023-05-08T09:19:02;99364.53;;;34.90
76901;BMP280;65859;43.020;25.096;2023-05-08T09:21:28;99368.91;;;35.86
76901;BMP280;65859;43.020;25.096;2023-05-08T09:26:35;99361.44;;;37.56
76901;BMP280;65859;43.020;25.096;2023-05-08T09:29:19;99353.69;;;38.41
76901;BMP280;65859;43.020;25.096;2023-05-08T09:31:50;99367.28;;;36.82
76901;BMP280;65859;43.020;25.096;2023-05-08T09:34:27;99359.09;;;35.24
76901;BMP280;65859;43.020;25.096;2023-05-08T09:37:12;99369.88;;;35.89
76901;BMP280;65859;43.020;25.096;2023-05-08T09:39:39;99361.25;;;36.26
76901;BMP280;65859;43.020;25.096;2023-05-08T09:42:08;99376.38;;;36.14
76901;BMP280;65859;43.020;25.096;2023-05-08T09:44:44;99370.84;;;38.39
76901;BMP280;65859;43.020;25.096;2023-05-08T09:47:22;99376.81;;;31.17
76901;BMP280;65859;43.020;25.096;2023-05-08T09:50:09;99385.13;;;31.91
76901;BMP280;65859;43.020;25.096;2023-05-08T09:52:37;99379.19;;;34.54
76901;BMP280;65859;43.020;25.096;2023-05-08T09:55:06;99367.53;;;33.59
76901;BMP280;65859;43.020;25.096;2023-05-08T09:57:35;99354.81;;;33.36
76901;BMP280;65859;43.020;25.096;2023-05-08T10:02:38;99374.53;;;34.71
76901;BMP280;65859;43.020;25.096;2023-05-08T10:05:22;99362.03;;;36.21
76901;BMP280;65859;43.020;25.096;2023-05-08T10:07:49;99367.03;;;36.22
76901;BMP280;65859;43.020;25.096;2023-05-08T10:10:22;99363.03;;;39.07
76901;BMP280;65859;43.020;25.096;2023-05-08T10:12:55;99359.69;;;34.69
76901;BMP280;65859;43.020;25.096;2023-05-08T10:15:29;99367.84;;;31.17
76901;BMP280;65859;43.020;25.096;2023-05-08T10:18:04;99357.34;;;29.92
76901;BMP280;65859;43.020;25.096;2023-05-08T10:20:41;99335.72;;;30.69
76901;BMP280;65859;43.020;25.096;2023-05-08T10:23:16;99329.75;;;28.99
76901;BMP280;65859;43.020;25.096;2023-05-08T10:25:50;99308.91;;;30.40
76901;BMP280;65859;43.020;25.096;2023-05-08T10:31:11;99302.97;;;28.26
76901;BMP280;65859;43.020;25.096;2023-05-08T10:33:41;99306.63;;;29.55
76901;BMP280;65859;43.020;25.096;2023-05-08T10:36:09;99303.03;;;28.14
76901;BMP280;65859;43.020;25.096;2023-05-08T10:38:37;99300.22;;;27.74
76901;BMP280;65859;43.020;25.096;2023-05-08T10:41:05;99306.22;;;28.12
76901;BMP280;65859;43.020;25.096;2023-05-08T10:43:32;99309.81;;;26.75
76901;BMP280;65859;43.020;25.096;2023-05-08T10:46:05;99311.34;;;27.57
76901;BMP280;65859;43.020;25.096;2023-05-08T10:51:46;99316.72;;;27.14
76901;BMP280;65859;43.020;25.096;2023-05-08T10:54:33;99304.53;;;27.06
76901;BMP280;65859;43.020;25.096;2023-05-08T10:57:11;99307.72;;;26.79
76901;BMP280;65859;43.020;25.096;2023-05-08T10:59:38;99309.25;;;26.80
76901;BMP280;65859;43.020;25.096;2023-05-08T11:02:09;99319.44;;;27.70
76901;BMP280;65859;43.020;25.096;2023-05-08T11:04:37;99319.13;;;27.12
76901;BMP280;65859;43.020;25.096;2023-05-08T11:07:03;99327.78;;;27.32
76901;BMP280;65859;43.020;25.096;2023-05-08T11:12:29;99320.59;;;26.66
76901;BMP280;65859;43.020;25.096;2023-05-08T11:15:03;99323.75;;;26.64
76901;BMP280;65859;43.020;25.096;2023-05-08T11:17:31;99327.69;;;27.23
76901;BMP280;65859;43.020;25.096;2023-05-08T11:20:03;99318.88;;;26.05
76901;BMP280;65859;43.020;25.096;2023-05-08T11:22:34;99322.50;;;26.14
76901;BMP280;65859;43.020;25.096;2023-05-08T11:25:03;99312.72;;;26.17
76901;BMP280;65859;43.020;25.096;2023-05-08T11:27:35;99311.94;;;26.16
76901;BMP280;65859;43.020;25.096;2023-05-08T11:30:19;99322.13;;;26.67
76901;BMP280;65859;43.020;25.096;2023-05-08T11:35:49;99311.38;;;27.10
76901;BMP280;65859;43.020;25.096;2023-05-08T11:38:33;99313.41;;;26.72
76901;BMP280;65859;43.020;25.096;2023-05-08T11:46:06;99346.91;;;25.44
76901;BMP280;65859;43.020;25.096;2023-05-08T11:48:36;99359.91;;;26.77
76901;BMP280;65859;43.020;25.096;2023-05-08T11:51:03;99347.19;;;25.49
76901;BMP280;65859;43.020;25.096;2023-05-08T11:53:30;99351.34;;;26.12
76901;BMP280;65859;43.020;25.096;2023-05-08T11:55:57;99355.25;;;25.53
76901;BMP280;65859;43.020;25.096;2023-05-08T11:58:23;99353.38;;;25.50
76901;BMP280;65859;43.020;25.096;2023-05-08T12:00:50;99363.44;;;25.37
76901;BMP280;65859;43.020;25.096;2023-05-08T12:03:18;99350.47;;;24.56
76901;BMP280;65859;43.020;25.096;2023-05-08T12:05:46;99359.72;;;24.78
76901;BMP280;65859;43.020;25.096;2023-05-08T12:08:15;99369.13;;;24.34
76901;BMP280;65859;43.020;25.096;2023-05-08T12:10:52;99362.59;;;24.51
76901;BMP280;65859;43.020;25.096;2023-05-08T12:13:28;99364.88;;;24.73
76901;BMP280;65859;43.020;25.096;2023-05-08T12:15:57;99385.00;;;24.16
76901;BMP280;65859;43.020;25.096;2023-05-08T12:18:24;99382.75;;;24.70
76901;BMP280;65859;43.020;25.096;2023-05-08T12:20:57;99384.16;;;24.78
76901;BMP280;65859;43.020;25.096;2023-05-08T12:23:28;99390.88;;;24.90
76901;BMP280;65859;43.020;25.096;2023-05-08T12:25:58;99391.22;;;24.16
76901;BMP280;65859;43.020;25.096;2023-05-08T12:28:25;99416.13;;;24.31
76901;BMP280;65859;43.020;25.096;2023-05-08T12:30:51;99413.59;;;25.16
76901;BMP280;65859;43.020;25.096;2023-05-08T12:33:18;99419.81;;;23.98
76901;BMP280;65859;43.020;25.096;2023-05-08T12:35:45;99423.34;;;24.38
76901;BMP280;65859;43.020;25.096;2023-05-08T12:38:13;99414.22;;;24.48
76901;BMP280;65859;43.020;25.096;2023-05-08T12:40:46;99416.63;;;23.56
76901;BMP280;65859;43.020;25.096;2023-05-08T12:43:18;99420.78;;;23.60
76901;BMP280;65859;43.020;25.096;2023-05-08T12:45:44;99418.13;;;22.73
76901;BMP280;65859;43.020;25.096;2023-05-08T12:48:13;99431.22;;;22.78
76901;BMP280;65859;43.020;25.096;2023-05-08T12:50:42;99435.66;;;22.20
76901;BMP280;65859;43.020;25.096;2023-05-08T12:53:16;99443.97;;;23.11
76901;BMP280;65859;43.020;25.096;2023-05-08T12:55:56;99434.16;;;22.19
76901;BMP280;65859;43.020;25.096;2023-05-08T12:58:24;99453.69;;;22.37
76901;BMP280;65859;43.020;25.096;2023-05-08T13:00:52;99463.31;;;22.38
76901;BMP280;65859;43.020;25.096;2023-05-08T13:03:26;99450.69;;;21.73
76901;BMP280;65859;43.020;25.096;2023-05-08T13:05:55;99455.94;;;22.42
76901;BMP280;65859;43.020;25.096;2023-05-08T13:08:31;99466.38;;;21.29
76901;BMP280;65859;43.020;25.096;2023-05-08T13:10:58;99469.78;;;21.48
76901;BMP280;65859;43.020;25.096;2023-05-08T13:13:28;99478.69;;;22.07
76901;BMP280;65859;43.020;25.096;2023-05-08T13:15:57;99477.81;;;22.58
76901;BMP280;65859;43.020;25.096;2023-05-08T13:18:25;99481.81;;;22.43
76901;BMP280;65859;43.020;25.096;2023-05-08T13:20:53;99479.91;;;21.95
76901;BMP280;65859;43.020;25.096;2023-05-08T13:23:19;99484.03;;;21.52
76901;BMP280;65859;43.020;25.096;2023-05-08T13:25:46;99488.56;;;21.65
76901;BMP280;65859;43.020;25.096;2023-05-08T13:28:12;99484.16;;;21.27
76901;BMP280;65859;43.020;25.096;2023-05-08T13:30:39;99486.81;;;21.34
76901;BMP280;65859;43.020;25.096;2023-05-08T13:33:05;99492.59;;;21.40
76901;BMP280;65859;43.020;25.096;2023-05-08T13:35:32;99493.66;;;21.56
76901;BMP280;65859;43.020;25.096;2023-05-08T13:37:59;99497.13;;;21.57
76901;BMP280;65859;43.020;25.096;2023-05-08T13:40:27;99496.00;;;21.51
76901;BMP280;65859;43.020;25.096;2023-05-08T13:42:54;99490.06;;;20.08
76901;BMP280;65859;43.020;25.096;2023-05-08T13:45:21;99500.06;;;20.89
76901;BMP280;65859;43.020;25.096;2023-05-08T13:47:48;99499.72;;;20.45
76901;BMP280;65859;43.020;25.096;2023-05-08T13:50:16;99499.28;;;19.93
76901;BMP280;65859;43.020;25.096;2023-05-08T13:52:43;99498.53;;;19.99
76901;BMP280;65859;43.020;25.096;2023-05-08T13:55:11;99504.69;;;20.03
76901;BMP280;65859;43.020;25.096;2023-05-08T13:57:38;99497.72;;;19.77
76901;BMP280;65859;43.020;25.096;2023-05-08T14:00:06;99515.63;;;19.34
76901;BMP280;65859;43.020;25.096;2023-05-08T14:02:32;99507.44;;;20.21
76901;BMP280;65859;43.020;25.096;2023-05-08T14:04:58;99515.09;;;20.16
76901;BMP280;65859;43.020;25.096;2023-05-08T14:07:25;99522.47;;;19.21
76901;BMP280;65859;43.020;25.096;2023-05-08T14:09:51;99519.66;;;19.00
76901;BMP280;65859;43.020;25.096;2023-05-08T14:12:19;99523.28;;;19.25
76901;BMP280;65859;43.020;25.096;2023-05-08T14:14:46;99522.00;;;19.95
76901;BMP280;65859;43.020;25.096;2023-05-08T14:17:12;99524.16;;;19.43
76901;BMP280;65859;43.020;25.096;2023-05-08T14:19:38;99523.03;;;19.55
76901;BMP280;65859;43.020;25.096;2023-05-08T14:22:05;99525.75;;;18.90
76901;BMP280;65859;43.020;25.096;2023-05-08T14:24:32;99524.00;;;19.22
76901;BMP280;65859;43.020;25.096;2023-05-08T14:26:58;99525.34;;;19.57
76901;BMP280;65859;43.020;25.096;2023-05-08T14:29:24;99529.00;;;18.24
76901;BMP280;65859;43.020;25.096;2023-05-08T14:31:51;99524.72;;;18.16
76901;BMP280;65859;43.020;25.096;2023-05-08T14:34:17;99532.38;;;18.14
76901;BMP280;65859;43.020;25.096;2023-05-08T14:36:44;99526.81;;;18.34
76901;BMP280;65859;43.020;25.096;2023-05-08T14:39:10;99532.75;;;19.05
76901;BMP280;65859;43.020;25.096;2023-05-08T14:41:36;99532.44;;;19.17
76901;BMP280;65859;43.020;25.096;2023-05-08T14:44:05;99537.69;;;18.48
76901;BMP280;65859;43.020;25.096;2023-05-08T14:46:32;99534.09;;;19.39
76901;BMP280;65859;43.020;25.096;2023-05-08T14:48:58;99543.22;;;19.17
76901;BMP280;65859;43.020;25.096;2023-05-08T14:51:24;99549.63;;;18.54
76901;BMP280;65859;43.020;25.096;2023-05-08T14:53:51;99556.38;;;18.74
76901;BMP280;65859;43.020;25.096;2023-05-08T14:56:18;99563.25;;;18.31
76901;BMP280;65859;43.020;25.096;2023-05-08T14:58:44;99564.41;;;18.71
76901;BMP280;65859;43.020;25.096;2023-05-08T15:01:11;99562.97;;;18.87
76901;BMP280;65859;43.020;25.096;2023-05-08T15:03:37;99560.97;;;19.32
76901;BMP280;65859;43.020;25.096;2023-05-08T15:06:03;99566.22;;;19.80
76901;BMP280;65859;43.020;25.096;2023-05-08T15:08:30;99566.47;;;18.95